sensor_id;sensor_type;location;lat;lon;timestamp;temperature;humidity
59855;DHT22;45732;52.850;6.896;2023-05-19T00:01:12;9.50;99.90
59855;DHT22;45732;52.850;6.896;2023-05-19T00:03:49;9.50;99.90
59855;DHT22;45732;52.850;6.896;2023-05-19T00:06:22;9.50;99.90
59855;DHT22;45732;52.850;6.896;2023-05-19T00:08:49;9.50;99.90
59855;DHT22;45732;52.850;6.896;2023-05-19T00:11:15;9.40;99.90
59855;DHT22;45732;52.850;6.896;2023-05-19T00:13:41;9.40;99.90
59855;DHT22;45732;52.850;6.896;2023-05-19T00:16:07;9.40;99.90
59855;DHT22;45732;52.850;6.896;2023-05-19T00:18:33;9.40;99.90
59855;DHT22;45732;52.850;6.896;2023-05-19T00:20:59;9.40;99.90
59855;DHT22;45732;52.850;6.896;2023-05-19T00:23:25;9.30;99.90
59855;DHT22;45732;52.850;6.896;2023-05-19T00:25:51;9.40;99.90
59855;DHT22;45732;52.850;6.896;2023-05-19T00:28:18;9.40;99.90
59855;DHT22;45732;52.850;6.896;2023-05-19T00:30:44;9.40;99.90
59855;DHT22;45732;52.850;6.896;2023-05-19T00:33:09;9.30;99.90
59855;DHT22;45732;52.850;6.896;2023-05-19T00:35:35;9.30;99.90
59855;DHT22;45732;52.850;6.896;2023-05-19T00:38:01;9.30;99.90
59855;DHT22;45732;52.850;6.896;2023-05-19T00:40:28;9.30;99.90
59855;DHT22;45732;52.850;6.896;2023-05-19T00:42:55;9.20;99.90
59855;DHT22;45732;52.850;6.896;2023-05-19T00:45:21;9.20;99.90
59855;DHT22;45732;52.850;6.896;2023-05-19T00:47:46;9.20;99.90
59855;DHT22;45732;52.850;6.896;2023-05-19T00:50:13;9.20;99.90
59855;DHT22;45732;52.850;6.896;2023-05-19T00:52:39;9.10;99.90
59855;DHT22;45732;52.850;6.896;2023-05-19T00:55:05;9.20;99.90
59855;DHT22;45732;52.850;6.896;2023-05-19T00:57:32;9.20;99.90
59855;DHT22;45732;52.850;6.896;2023-05-19T00:59:58;9.10;99.90
59855;DHT22;45732;52.850;6.896;2023-05-19T01:02:23;9.20;99.90
59855;DHT22;45732;52.850;6.896;2023-05-19T01:04:50;9.20;99.90
59855;DHT22;45732;52.850;6.896;2023-05-19T01:07:16;9.10;99.90
59855;DHT22;45732;52.850;6.896;2023-05-19T01:09:43;9.10;99.90
59855;DHT22;45732;52.850;6.896;2023-05-19T01:12:09;9.10;99.90
59855;DHT22;45732;52.850;6.896;2023-05-19T01:14:35;9.10;99.90
59855;DHT22;45732;52.850;6.896;2023-05-19T01:17:48;9.10;99.90
59855;DHT22;45732;52.850;6.896;2023-05-19T01:19:55;9.10;99.90
59855;DHT22;45732;52.850;6.896;2023-05-19T01:28:13;8.90;99.90
59855;DHT22;45732;52.850;6.896;2023-05-19T01:30:45;9.00;99.90
59855;DHT22;45732;52.850;6.896;2023-05-19T01:33:14;8.90;99.90
59855;DHT22;45732;52.850;6.896;2023-05-19T01:35:42;8.90;99.90
59855;DHT22;45732;52.850;6.896;2023-05-19T01:38:10;8.90;99.90
59855;DHT22;45732;52.850;6.896;2023-05-19T01:40:38;8.90;99.90
59855;DHT22;45732;52.850;6.896;2023-05-19T01:43:04;8.90;99.90
59855;DHT22;45732;52.850;6.896;2023-05-19T01:45:32;8.90;99.90
59855;DHT22;45732;52.850;6.896;2023-05-19T01:47:59;8.80;99.90
59855;DHT22;45732;52.850;6.896;2023-05-19T01:50:26;8.80;99.90
59855;DHT22;45732;52.850;6.896;2023-05-19T01:52:52;8.70;99.90
59855;DHT22;45732;52.850;6.896;2023-05-19T01:55:18;8.80;99.90
59855;DHT22;45732;52.850;6.896;2023-05-19T01:59:03;8.80;99.90
59855;DHT22;45732;52.850;6.896;2023-05-19T02:04:04;8.70;99.90
59855;DHT22;45732;52.850;6.896;2023-05-19T02:07:00;8.60;99.90
59855;DHT22;45732;52.850;6.896;2023-05-19T02:09:52;8.60;99.90
59855;DHT22;45732;52.850;6.896;2023-05-19T02:17:34;8.50;99.90
59855;DHT22;45732;52.850;6.896;2023-05-19T02:20:02;8.50;99.90
59855;DHT22;45732;52.850;6.896;2023-05-19T02:22:29;8.50;99.90
59855;DHT22;45732;52.850;6.896;2023-05-19T02:24:55;8.50;99.90
59855;DHT22;45732;52.850;6.896;2023-05-19T02:27:22;8.50;99.90
59855;DHT22;45732;52.850;6.896;2023-05-19T02:29:48;8.50;99.90
59855;DHT22;45732;52.850;6.896;2023-05-19T02:32:14;8.50;99.90
59855;DHT22;45732;52.850;6.896;2023-05-19T02:34:40;8.50;99.90
59855;DHT22;45732;52.850;6.896;2023-05-19T02:37:16;8.50;99.90
59855;DHT22;45732;52.850;6.896;2023-05-19T02:39:42;8.50;99.90
59855;DHT22;45732;52.850;6.896;2023-05-19T02:42:08;8.50;99.90
59855;DHT22;45732;52.850;6.896;2023-05-19T02:44:35;8.50;99.90
59855;DHT22;45732;52.850;6.896;2023-05-19T02:47:00;8.50;99.90
59855;DHT22;45732;52.850;6.896;2023-05-19T02:49:26;8.40;99.90
59855;DHT22;45732;52.850;6.896;2023-05-19T02:51:55;8.40;99.90
59855;DHT22;45732;52.850;6.896;2023-05-19T02:54:21;8.40;99.90
59855;DHT22;45732;52.850;6.896;2023-05-19T02:56:47;8.50;99.90
59855;DHT22;45732;52.850;6.896;2023-05-19T02:59:13;8.50;99.90
59855;DHT22;45732;52.850;6.896;2023-05-19T03:01:38;8.40;99.90
59855;DHT22;45732;52.850;6.896;2023-05-19T03:04:04;8.40;99.90
59855;DHT22;45732;52.850;6.896;2023-05-19T03:06:30;8.40;99.90
59855;DHT22;45732;52.850;6.896;2023-05-19T03:08:57;8.40;99.90
59855;DHT22;45732;52.850;6.896;2023-05-19T03:11:23;8.40;99.90
59855;DHT22;45732;52.850;6.896;2023-05-19T03:13:48;8.30;99.90
59855;DHT22;45732;52.850;6.896;2023-05-19T03:16:14;8.30;99.90
59855;DHT22;45732;52.850;6.896;2023-05-19T03:18:40;8.30;99.90
59855;DHT22;45732;52.850;6.896;2023-05-19T03:21:06;8.30;99.90
59855;DHT22;45732;52.850;6.896;2023-05-19T03:23:32;8.30;99.90
59855;DHT22;45732;52.850;6.896;2023-05-19T03:25:57;8.30;99.90
59855;DHT22;45732;52.850;6.896;2023-05-19T03:28:23;8.30;99.90
59855;DHT22;45732;52.850;6.896;2023-05-19T03:30:49;8.30;99.90
59855;DHT22;45732;52.850;6.896;2023-05-19T03:33:15;8.30;99.90
59855;DHT22;45732;52.850;6.896;2023-05-19T03:35:41;8.30;99.90
59855;DHT22;45732;52.850;6.896;2023-05-19T03:38:08;8.30;99.90
59855;DHT22;45732;52.850;6.896;2023-05-19T03:40:34;8.20;99.90
59855;DHT22;45732;52.850;6.896;2023-05-19T03:43:00;8.20;99.90
59855;DHT22;45732;52.850;6.896;2023-05-19T03:45:26;8.20;99.90
59855;DHT22;45732;52.850;6.896;2023-05-19T03:47:52;8.20;99.90
59855;DHT22;45732;52.850;6.896;2023-05-19T03:50:18;8.20;99.90
59855;DHT22;45732;52.850;6.896;2023-05-19T03:52:43;8.20;99.90
59855;DHT22;45732;52.850;6.896;2023-05-19T03:55:11;8.10;99.90
59855;DHT22;45732;52.850;6.896;2023-05-19T03:57:39;8.10;99.90
59855;DHT22;45732;52.850;6.896;2023-05-19T04:00:06;8.10;99.90
59855;DHT22;45732;52.850;6.896;2023-05-19T04:02:32;8.10;99.90
59855;DHT22;45732;52.850;6.896;2023-05-19T04:04:58;8.10;99.90
59855;DHT22;45732;52.850;6.896;2023-05-19T04:07:23;8.00;99.90
59855;DHT22;45732;52.850;6.896;2023-05-19T04:09:49;8.00;99.90
59855;DHT22;45732;52.850;6.896;2023-05-19T04:12:15;8.00;99.90
59855;DHT22;45732;52.850;6.896;2023-05-19T04:14:41;8.10;99.90
59855;DHT22;45732;52.850;6.896;2023-05-19T04:17:07;8.00;99.90
59855;DHT22;45732;52.850;6.896;2023-05-19T04:19:32;8.00;99.90
59855;DHT22;45732;52.850;6.896;2023-05-19T04:21:58;8.10;99.90
59855;DHT22;45732;52.850;6.896;2023-05-19T04:24:24;8.10;99.90
59855;DHT22;45732;52.850;6.896;2023-05-19T04:26:50;8.10;99.90
59855;DHT22;45732;52.850;6.896;2023-05-19T04:29:16;8.10;99.90
59855;DHT22;45732;52.850;6.896;2023-05-19T04:31:43;8.10;99.90
59855;DHT22;45732;52.850;6.896;2023-05-19T04:34:09;8.10;99.90
59855;DHT22;45732;52.850;6.896;2023-05-19T04:36:35;8.10;99.90
59855;DHT22;45732;52.850;6.896;2023-05-19T04:39:02;8.10;99.90
59855;DHT22;45732;52.850;6.896;2023-05-19T04:41:31;8.20;99.90
59855;DHT22;45732;52.850;6.896;2023-05-19T04:43:58;8.20;99.90
59855;DHT22;45732;52.850;6.896;2023-05-19T04:46:25;8.20;99.90
59855;DHT22;45732;52.850;6.896;2023-05-19T04:48:51;8.30;99.90
59855;DHT22;45732;52.850;6.896;2023-05-19T04:51:18;8.30;99.90
59855;DHT22;45732;52.850;6.896;2023-05-19T04:53:44;8.30;99.90
59855;DHT22;45732;52.850;6.896;2023-05-19T04:56:10;8.40;99.90
59855;DHT22;45732;52.850;6.896;2023-05-19T04:58:40;8.40;99.90
59855;DHT22;45732;52.850;6.896;2023-05-19T05:01:06;8.50;99.90
59855;DHT22;45732;52.850;6.896;2023-05-19T05:03:34;8.50;99.90
59855;DHT22;45732;52.850;6.896;2023-05-19T05:06:00;8.50;99.90
59855;DHT22;45732;52.850;6.896;2023-05-19T05:08:25;8.60;99.90
59855;DHT22;45732;52.850;6.896;2023-05-19T05:10:52;8.60;99.90
59855;DHT22;45732;52.850;6.896;2023-05-19T05:13:21;8.70;99.90
59855;DHT22;45732;52.850;6.896;2023-05-19T05:15:47;8.80;99.90
59855;DHT22;45732;52.850;6.896;2023-05-19T05:18:13;8.80;99.90
59855;DHT22;45732;52.850;6.896;2023-05-19T05:20:43;8.90;99.90
59855;DHT22;45732;52.850;6.896;2023-05-19T05:23:11;9.00;99.90
59855;DHT22;45732;52.850;6.896;2023-05-19T05:25:42;9.10;99.90
59855;DHT22;45732;52.850;6.896;2023-05-19T05:28:08;9.10;99.90
59855;DHT22;45732;52.850;6.896;2023-05-19T05:30:33;9.20;99.90
59855;DHT22;45732;52.850;6.896;2023-05-19T05:33:00;9.30;99.90
59855;DHT22;45732;52.850;6.896;2023-05-19T05:35:26;9.40;99.90
59855;DHT22;45732;52.850;6.896;2023-05-19T05:37:53;9.40;99.90
59855;DHT22;45732;52.850;6.896;2023-05-19T05:40:18;9.50;99.90
59855;DHT22;45732;52.850;6.896;2023-05-19T05:42:44;9.60;99.90
59855;DHT22;45732;52.850;6.896;2023-05-19T05:45:10;9.70;99.90
59855;DHT22;45732;52.850;6.896;2023-05-19T05:47:36;9.80;99.90
59855;DHT22;45732;52.850;6.896;2023-05-19T05:50:05;9.80;99.90
59855;DHT22;45732;52.850;6.896;2023-05-19T05:52:31;9.90;99.90
59855;DHT22;45732;52.850;6.896;2023-05-19T05:54:57;10.00;99.90
59855;DHT22;45732;52.850;6.896;2023-05-19T05:57:23;10.10;99.90
59855;DHT22;45732;52.850;6.896;2023-05-19T05:59:49;10.10;99.90
59855;DHT22;45732;52.850;6.896;2023-05-19T06:02:16;10.20;99.90
59855;DHT22;45732;52.850;6.896;2023-05-19T06:04:42;10.20;99.90
59855;DHT22;45732;52.850;6.896;2023-05-19T06:07:08;10.30;99.90
59855;DHT22;45732;52.850;6.896;2023-05-19T06:09:34;10.40;99.90
59855;DHT22;45732;52.850;6.896;2023-05-19T06:12:00;10.50;99.90
59855;DHT22;45732;52.850;6.896;2023-05-19T06:14:26;10.50;99.90
59855;DHT22;45732;52.850;6.896;2023-05-19T06:16:52;10.60;99.90
59855;DHT22;45732;52.850;6.896;2023-05-19T06:19:18;10.60;99.90
59855;DHT22;45732;52.850;6.896;2023-05-19T06:21:47;10.70;99.90
59855;DHT22;45732;52.850;6.896;2023-05-19T06:24:12;10.80;99.90
59855;DHT22;45732;52.850;6.896;2023-05-19T06:26:38;10.80;99.90
59855;DHT22;45732;52.850;6.896;2023-05-19T06:29:03;10.90;99.90
59855;DHT22;45732;52.850;6.896;2023-05-19T06:31:29;11.00;99.90
59855;DHT22;45732;52.850;6.896;2023-05-19T06:33:55;11.10;99.90
59855;DHT22;45732;52.850;6.896;2023-05-19T06:36:21;11.20;99.90
59855;DHT22;45732;52.850;6.896;2023-05-19T06:38:47;11.20;99.90
59855;DHT22;45732;52.850;6.896;2023-05-19T06:41:12;11.30;99.90
59855;DHT22;45732;52.850;6.896;2023-05-19T06:43:38;11.40;99.90
59855;DHT22;45732;52.850;6.896;2023-05-19T06:46:04;11.50;99.90
59855;DHT22;45732;52.850;6.896;2023-05-19T06:48:29;11.60;99.90
59855;DHT22;45732;52.850;6.896;2023-05-19T06:50:55;11.60;99.90
59855;DHT22;45732;52.850;6.896;2023-05-19T06:53:21;11.70;99.90
59855;DHT22;45732;52.850;6.896;2023-05-19T06:55:47;11.70;99.90
59855;DHT22;45732;52.850;6.896;2023-05-19T06:58:15;11.80;99.90
59855;DHT22;45732;52.850;6.896;2023-05-19T07:00:41;11.90;99.90
59855;DHT22;45732;52.850;6.896;2023-05-19T07:03:08;11.90;99.90
59855;DHT22;45732;52.850;6.896;2023-05-19T07:05:33;12.00;99.90
59855;DHT22;45732;52.850;6.896;2023-05-19T07:07:59;12.00;99.90
59855;DHT22;45732;52.850;6.896;2023-05-19T07:10:26;12.10;99.90
59855;DHT22;45732;52.850;6.896;2023-05-19T07:12:52;12.10;99.90
59855;DHT22;45732;52.850;6.896;2023-05-19T07:15:17;12.20;99.90
59855;DHT22;45732;52.850;6.896;2023-05-19T07:17:43;12.30;99.90
59855;DHT22;45732;52.850;6.896;2023-05-19T07:20:09;12.40;99.90
59855;DHT22;45732;52.850;6.896;2023-05-19T07:22:36;12.50;99.90
59855;DHT22;45732;52.850;6.896;2023-05-19T07:25:04;12.50;99.90
59855;DHT22;45732;52.850;6.896;2023-05-19T07:27:30;12.60;99.90
59855;DHT22;45732;52.850;6.896;2023-05-19T07:29:56;12.70;99.90
59855;DHT22;45732;52.850;6.896;2023-05-19T07:32:22;12.70;99.90
59855;DHT22;45732;52.850;6.896;2023-05-19T07:34:48;12.80;99.90
59855;DHT22;45732;52.850;6.896;2023-05-19T07:37:13;12.80;99.90
59855;DHT22;45732;52.850;6.896;2023-05-19T07:39:40;12.90;99.90
59855;DHT22;45732;52.850;6.896;2023-05-19T07:42:06;13.00;99.90
59855;DHT22;45732;52.850;6.896;2023-05-19T07:44:31;13.00;99.90
59855;DHT22;45732;52.850;6.896;2023-05-19T07:46:57;13.20;99.90
59855;DHT22;45732;52.850;6.896;2023-05-19T07:49:23;13.20;99.90
59855;DHT22;45732;52.850;6.896;2023-05-19T07:51:49;13.30;99.90
59855;DHT22;45732;52.850;6.896;2023-05-19T07:54:14;13.30;99.90
59855;DHT22;45732;52.850;6.896;2023-05-19T07:56:40;13.40;99.90
59855;DHT22;45732;52.850;6.896;2023-05-19T07:59:06;13.50;99.90
59855;DHT22;45732;52.850;6.896;2023-05-19T08:01:33;13.50;99.90
59855;DHT22;45732;52.850;6.896;2023-05-19T08:03:58;13.60;99.90
59855;DHT22;45732;52.850;6.896;2023-05-19T08:06:24;13.60;99.90
59855;DHT22;45732;52.850;6.896;2023-05-19T08:08:50;13.70;99.90
59855;DHT22;45732;52.850;6.896;2023-05-19T08:11:16;13.80;99.90
59855;DHT22;45732;52.850;6.896;2023-05-19T08:13:42;13.90;99.90
59855;DHT22;45732;52.850;6.896;2023-05-19T08:16:08;13.90;99.90
59855;DHT22;45732;52.850;6.896;2023-05-19T08:18:34;14.00;99.90
59855;DHT22;45732;52.850;6.896;2023-05-19T08:20:59;14.00;99.90
59855;DHT22;45732;52.850;6.896;2023-05-19T08:23:25;14.10;99.90
59855;DHT22;45732;52.850;6.896;2023-05-19T08:25:51;14.10;99.90
59855;DHT22;45732;52.850;6.896;2023-05-19T08:28:17;14.20;99.90
59855;DHT22;45732;52.850;6.896;2023-05-19T08:30:42;14.30;99.90
59855;DHT22;45732;52.850;6.896;2023-05-19T08:33:08;14.30;99.90
59855;DHT22;45732;52.850;6.896;2023-05-19T08:35:34;14.40;99.90
59855;DHT22;45732;52.850;6.896;2023-05-19T08:37:59;14.50;99.90
59855;DHT22;45732;52.850;6.896;2023-05-19T08:40:27;14.50;99.90
59855;DHT22;45732;52.850;6.896;2023-05-19T08:42:56;14.60;99.90
59855;DHT22;45732;52.850;6.896;2023-05-19T08:45:21;14.70;99.90
59855;DHT22;45732;52.850;6.896;2023-05-19T08:47:48;14.70;99.90
59855;DHT22;45732;52.850;6.896;2023-05-19T08:50:23;14.80;99.90
59855;DHT22;45732;52.850;6.896;2023-05-19T08:52:57;14.90;99.90
59855;DHT22;45732;52.850;6.896;2023-05-19T08:55:42;15.00;99.90
59855;DHT22;45732;52.850;6.896;2023-05-19T08:58:11;15.10;99.90
59855;DHT22;45732;52.850;6.896;2023-05-19T09:00:37;15.20;99.90
59855;DHT22;45732;52.850;6.896;2023-05-19T09:03:04;15.20;99.90
59855;DHT22;45732;52.850;6.896;2023-05-19T09:05:30;15.30;99.90
59855;DHT22;45732;52.850;6.896;2023-05-19T09:07:56;15.30;99.90
59855;DHT22;45732;52.850;6.896;2023-05-19T09:10:22;15.40;99.90
59855;DHT22;45732;52.850;6.896;2023-05-19T09:12:48;15.40;99.90
59855;DHT22;45732;52.850;6.896;2023-05-19T09:15:17;15.50;99.90
59855;DHT22;45732;52.850;6.896;2023-05-19T09:17:45;15.50;99.90
59855;DHT22;45732;52.850;6.896;2023-05-19T09:20:15;15.60;99.90
59855;DHT22;45732;52.850;6.896;2023-05-19T09:22:42;15.60;99.90
59855;DHT22;45732;52.850;6.896;2023-05-19T09:25:24;15.70;99.90
59855;DHT22;45732;52.850;6.896;2023-05-19T09:27:50;15.70;99.90
59855;DHT22;45732;52.850;6.896;2023-05-19T09:30:17;15.80;99.90
59855;DHT22;45732;52.850;6.896;2023-05-19T09:32:43;15.90;99.90
59855;DHT22;45732;52.850;6.896;2023-05-19T09:35:13;15.90;99.90
59855;DHT22;45732;52.850;6.896;2023-05-19T09:37:42;16.00;99.90
59855;DHT22;45732;52.850;6.896;2023-05-19T09:40:08;16.00;99.90
59855;DHT22;45732;52.850;6.896;2023-05-19T09:42:39;16.00;99.90
59855;DHT22;45732;52.850;6.896;2023-05-19T09:45:06;16.10;99.90
59855;DHT22;45732;52.850;6.896;2023-05-19T09:47:38;16.20;99.90
59855;DHT22;45732;52.850;6.896;2023-05-19T09:50:06;16.20;99.90
59855;DHT22;45732;52.850;6.896;2023-05-19T09:52:39;16.30;99.90
59855;DHT22;45732;52.850;6.896;2023-05-19T09:55:11;16.40;99.90
59855;DHT22;45732;52.850;6.896;2023-05-19T09:57:38;16.50;99.90
59855;DHT22;45732;52.850;6.896;2023-05-19T10:00:08;16.60;99.90
59855;DHT22;45732;52.850;6.896;2023-05-19T10:02:46;16.60;99.90
59855;DHT22;45732;52.850;6.896;2023-05-19T10:05:13;16.70;99.90
59855;DHT22;45732;52.850;6.896;2023-05-19T10:07:50;16.70;99.90
59855;DHT22;45732;52.850;6.896;2023-05-19T10:10:17;16.60;99.90
59855;DHT22;45732;52.850;6.896;2023-05-19T10:12:45;16.50;99.90
59855;DHT22;45732;52.850;6.896;2023-05-19T10:15:16;16.60;99.90
59855;DHT22;45732;52.850;6.896;2023-05-19T10:17:43;16.70;99.90
59855;DHT22;45732;52.850;6.896;2023-05-19T10:20:14;16.80;99.90
59855;DHT22;45732;52.850;6.896;2023-05-19T10:22:41;16.80;99.90
59855;DHT22;45732;52.850;6.896;2023-05-19T10:25:08;16.80;99.90
59855;DHT22;45732;52.850;6.896;2023-05-19T10:27:40;16.90;99.90
59855;DHT22;45732;52.850;6.896;2023-05-19T10:30:13;17.10;99.90
59855;DHT22;45732;52.850;6.896;2023-05-19T10:32:42;17.10;99.90
59855;DHT22;45732;52.850;6.896;2023-05-19T10:40:29;17.10;99.90
59855;DHT22;45732;52.850;6.896;2023-05-19T10:45:47;17.10;99.90
59855;DHT22;45732;52.850;6.896;2023-05-19T10:48:14;17.20;99.90
59855;DHT22;45732;52.850;6.896;2023-05-19T10:50:43;17.30;99.90
59855;DHT22;45732;52.850;6.896;2023-05-19T10:53:17;17.40;99.90
59855;DHT22;45732;52.850;6.896;2023-05-19T10:55:45;17.60;99.90
59855;DHT22;45732;52.850;6.896;2023-05-19T10:58:13;17.70;99.90
59855;DHT22;45732;52.850;6.896;2023-05-19T11:00:40;17.80;99.90
59855;DHT22;45732;52.850;6.896;2023-05-19T11:03:13;18.00;99.90
59855;DHT22;45732;52.850;6.896;2023-05-19T11:05:39;18.00;99.90
59855;DHT22;45732;52.850;6.896;2023-05-19T11:08:05;17.90;99.90
59855;DHT22;45732;52.850;6.896;2023-05-19T11:10:36;18.00;99.90
59855;DHT22;45732;52.850;6.896;2023-05-19T11:13:03;18.10;99.90
59855;DHT22;45732;52.850;6.896;2023-05-19T11:15:33;18.20;99.90
59855;DHT22;45732;52.850;6.896;2023-05-19T11:18:00;18.20;99.90
59855;DHT22;45732;52.850;6.896;2023-05-19T11:20:27;18.10;99.90
59855;DHT22;45732;52.850;6.896;2023-05-19T11:23:03;18.00;99.90
59855;DHT22;45732;52.850;6.896;2023-05-19T11:25:44;18.00;99.90
59855;DHT22;45732;52.850;6.896;2023-05-19T11:28:12;18.00;99.90
59855;DHT22;45732;52.850;6.896;2023-05-19T11:30:44;18.10;99.90
59855;DHT22;45732;52.850;6.896;2023-05-19T11:33:10;18.20;99.90
59855;DHT22;45732;52.850;6.896;2023-05-19T11:35:38;18.30;99.90
59855;DHT22;45732;52.850;6.896;2023-05-19T11:38:05;18.20;99.90
59855;DHT22;45732;52.850;6.896;2023-05-19T11:40:31;18.20;99.90
59855;DHT22;45732;52.850;6.896;2023-05-19T11:42:58;18.20;99.90
59855;DHT22;45732;52.850;6.896;2023-05-19T11:45:27;18.30;99.90
59855;DHT22;45732;52.850;6.896;2023-05-19T11:47:57;18.40;99.90
59855;DHT22;45732;52.850;6.896;2023-05-19T11:50:23;18.50;99.90
59855;DHT22;45732;52.850;6.896;2023-05-19T11:52:50;18.30;99.90
59855;DHT22;45732;52.850;6.896;2023-05-19T11:55:17;18.20;99.90
59855;DHT22;45732;52.850;6.896;2023-05-19T11:58:11;18.30;99.90
59855;DHT22;45732;52.850;6.896;2023-05-19T12:00:38;18.30;99.90
59855;DHT22;45732;52.850;6.896;2023-05-19T12:03:05;18.40;99.90
59855;DHT22;45732;52.850;6.896;2023-05-19T12:05:31;18.40;99.90
59855;DHT22;45732;52.850;6.896;2023-05-19T12:07:57;18.30;99.90
59855;DHT22;45732;52.850;6.896;2023-05-19T12:10:29;18.30;99.90
59855;DHT22;45732;52.850;6.896;2023-05-19T12:12:56;18.40;99.90
59855;DHT22;45732;52.850;6.896;2023-05-19T12:15:23;18.50;99.90
59855;DHT22;45732;52.850;6.896;2023-05-19T12:17:57;18.60;99.90
59855;DHT22;45732;52.850;6.896;2023-05-19T12:20:24;18.60;99.90
59855;DHT22;45732;52.850;6.896;2023-05-19T12:22:51;18.60;99.90
59855;DHT22;45732;52.850;6.896;2023-05-19T12:25:17;18.60;99.90
59855;DHT22;45732;52.850;6.896;2023-05-19T12:27:43;18.80;99.90
59855;DHT22;45732;52.850;6.896;2023-05-19T12:30:10;18.80;99.90
59855;DHT22;45732;52.850;6.896;2023-05-19T12:32:37;18.80;99.90
59855;DHT22;45732;52.850;6.896;2023-05-19T12:35:04;18.70;99.90
59855;DHT22;45732;52.850;6.896;2023-05-19T12:37:31;18.60;99.90
59855;DHT22;45732;52.850;6.896;2023-05-19T12:40:01;18.50;99.90
59855;DHT22;45732;52.850;6.896;2023-05-19T12:42:28;18.50;99.90
59855;DHT22;45732;52.850;6.896;2023-05-19T12:44:57;18.60;99.90
59855;DHT22;45732;52.850;6.896;2023-05-19T12:47:32;18.70;99.90
59855;DHT22;45732;52.850;6.896;2023-05-19T12:50:08;18.80;99.90
59855;DHT22;45732;52.850;6.896;2023-05-19T12:52:41;18.80;99.90
59855;DHT22;45732;52.850;6.896;2023-05-19T12:55:08;18.80;99.90
59855;DHT22;45732;52.850;6.896;2023-05-19T12:57:39;18.60;99.90
59855;DHT22;45732;52.850;6.896;2023-05-19T13:00:18;18.60;99.90
59855;DHT22;45732;52.850;6.896;2023-05-19T13:02:56;18.60;99.90
59855;DHT22;45732;52.850;6.896;2023-05-19T13:05:23;18.50;99.90
59855;DHT22;45732;52.850;6.896;2023-05-19T13:08:16;18.40;99.90
59855;DHT22;45732;52.850;6.896;2023-05-19T13:10:43;18.30;99.90
59855;DHT22;45732;52.850;6.896;2023-05-19T13:13:10;18.30;99.90
59855;DHT22;45732;52.850;6.896;2023-05-19T13:15:43;18.30;99.90
59855;DHT22;45732;52.850;6.896;2023-05-19T13:18:10;18.30;99.90
59855;DHT22;45732;52.850;6.896;2023-05-19T13:20:38;18.40;99.90
59855;DHT22;45732;52.850;6.896;2023-05-19T13:23:04;18.30;99.90
59855;DHT22;45732;52.850;6.896;2023-05-19T13:25:32;18.30;99.90
59855;DHT22;45732;52.850;6.896;2023-05-19T13:27:58;18.20;99.90
59855;DHT22;45732;52.850;6.896;2023-05-19T13:30:26;18.30;99.90
59855;DHT22;45732;52.850;6.896;2023-05-19T13:32:52;18.40;99.90
59855;DHT22;45732;52.850;6.896;2023-05-19T13:35:19;18.50;99.90
59855;DHT22;45732;52.850;6.896;2023-05-19T13:37:44;18.60;99.90
59855;DHT22;45732;52.850;6.896;2023-05-19T13:40:11;18.70;99.90
59855;DHT22;45732;52.850;6.896;2023-05-19T13:42:37;18.70;99.90
59855;DHT22;45732;52.850;6.896;2023-05-19T13:45:03;18.50;99.90
59855;DHT22;45732;52.850;6.896;2023-05-19T13:47:29;18.50;99.90
59855;DHT22;45732;52.850;6.896;2023-05-19T13:49:55;18.40;99.90
59855;DHT22;45732;52.850;6.896;2023-05-19T13:52:21;18.30;99.90
59855;DHT22;45732;52.850;6.896;2023-05-19T13:54:47;18.30;99.90
59855;DHT22;45732;52.850;6.896;2023-05-19T13:57:14;18.30;99.90
59855;DHT22;45732;52.850;6.896;2023-05-19T13:59:40;18.30;99.90
59855;DHT22;45732;52.850;6.896;2023-05-19T14:02:07;18.40;99.90
59855;DHT22;45732;52.850;6.896;2023-05-19T14:04:36;18.60;99.90
59855;DHT22;45732;52.850;6.896;2023-05-19T14:07:03;18.60;99.90
59855;DHT22;45732;52.850;6.896;2023-05-19T14:09:30;18.50;99.90
59855;DHT22;45732;52.850;6.896;2023-05-19T14:11:55;18.50;99.90
59855;DHT22;45732;52.850;6.896;2023-05-19T14:14:21;18.50;99.90
59855;DHT22;45732;52.850;6.896;2023-05-19T14:16:47;18.50;99.90
59855;DHT22;45732;52.850;6.896;2023-05-19T14:19:13;18.70;99.90
59855;DHT22;45732;52.850;6.896;2023-05-19T14:21:39;18.80;99.90
59855;DHT22;45732;52.850;6.896;2023-05-19T14:24:04;18.90;99.90
59855;DHT22;45732;52.850;6.896;2023-05-19T14:26:30;18.90;99.90
59855;DHT22;45732;52.850;6.896;2023-05-19T14:28:56;18.90;99.90
59855;DHT22;45732;52.850;6.896;2023-05-19T14:31:22;18.90;99.90
59855;DHT22;45732;52.850;6.896;2023-05-19T14:33:47;18.80;99.90
59855;DHT22;45732;52.850;6.896;2023-05-19T14:36:13;18.80;99.90
59855;DHT22;45732;52.850;6.896;2023-05-19T14:38:39;18.60;99.90
59855;DHT22;45732;52.850;6.896;2023-05-19T14:41:05;18.50;99.80
59855;DHT22;45732;52.850;6.896;2023-05-19T14:43:31;18.50;99.90
59855;DHT22;45732;52.850;6.896;2023-05-19T14:45:57;18.60;99.90
59855;DHT22;45732;52.850;6.896;2023-05-19T14:48:23;18.70;99.90
59855;DHT22;45732;52.850;6.896;2023-05-19T14:50:49;18.70;99.70
59855;DHT22;45732;52.850;6.896;2023-05-19T14:53:15;18.70;99.50
59855;DHT22;45732;52.850;6.896;2023-05-19T14:55:41;18.50;99.10
59855;DHT22;45732;52.850;6.896;2023-05-19T14:58:07;18.40;99.30
59855;DHT22;45732;52.850;6.896;2023-05-19T15:00:33;18.40;99.20
59855;DHT22;45732;52.850;6.896;2023-05-19T15:02:59;18.30;99.10
59855;DHT22;45732;52.850;6.896;2023-05-19T15:05:24;18.40;99.00
59855;DHT22;45732;52.850;6.896;2023-05-19T15:07:50;18.40;99.10
59855;DHT22;45732;52.850;6.896;2023-05-19T15:10:17;18.50;99.50
59855;DHT22;45732;52.850;6.896;2023-05-19T15:12:45;18.60;99.00
59855;DHT22;45732;52.850;6.896;2023-05-19T15:15:11;18.80;99.00
59855;DHT22;45732;52.850;6.896;2023-05-19T15:17:37;18.80;98.60
59855;DHT22;45732;52.850;6.896;2023-05-19T15:20:03;18.90;98.40
59855;DHT22;45732;52.850;6.896;2023-05-19T15:22:29;18.80;98.60
59855;DHT22;45732;52.850;6.896;2023-05-19T15:24:54;18.80;98.50
59855;DHT22;45732;52.850;6.896;2023-05-19T15:27:21;18.60;98.00
59855;DHT22;45732;52.850;6.896;2023-05-19T15:29:46;18.50;98.10
59855;DHT22;45732;52.850;6.896;2023-05-19T15:32:12;18.50;98.30
59855;DHT22;45732;52.850;6.896;2023-05-19T15:34:37;18.50;98.20
59855;DHT22;45732;52.850;6.896;2023-05-19T15:37:03;18.70;98.20
59855;DHT22;45732;52.850;6.896;2023-05-19T15:39:30;18.80;98.60
59855;DHT22;45732;52.850;6.896;2023-05-19T15:41:58;18.90;98.30
59855;DHT22;45732;52.850;6.896;2023-05-19T15:44:24;18.80;98.10
59855;DHT22;45732;52.850;6.896;2023-05-19T15:46:50;18.60;98.10
59855;DHT22;45732;52.850;6.896;2023-05-19T15:49:15;18.50;98.10
59855;DHT22;45732;52.850;6.896;2023-05-19T15:51:43;18.40;98.10
59855;DHT22;45732;52.850;6.896;2023-05-19T15:54:09;18.50;98.30
59855;DHT22;45732;52.850;6.896;2023-05-19T15:56:34;18.50;98.50
59855;DHT22;45732;52.850;6.896;2023-05-19T15:59:00;18.60;98.70
59855;DHT22;45732;52.850;6.896;2023-05-19T16:01:26;18.80;98.50